sensor_id;sensor_type;location;lat;lon;timestamp;temperature;humidity
21318;DHT22;10818;50.830;6.524;2024-02-21T00:01:23;10.60;99.90
21318;DHT22;10818;50.830;6.524;2024-02-21T00:06:23;10.50;99.90
21318;DHT22;10818;50.830;6.524;2024-02-21T00:11:24;10.50;99.90
21318;DHT22;10818;50.830;6.524;2024-02-21T00:16:24;10.60;99.90
21318;DHT22;10818;50.830;6.524;2024-02-21T00:21:25;10.50;99.90
21318;DHT22;10818;50.830;6.524;2024-02-21T00:26:25;10.40;99.90
21318;DHT22;10818;50.830;6.524;2024-02-21T00:31:26;10.50;99.90
21318;DHT22;10818;50.830;6.524;2024-02-21T00:36:26;10.30;99.90
21318;DHT22;10818;50.830;6.524;2024-02-21T00:41:27;10.10;99.90
21318;DHT22;10818;50.830;6.524;2024-02-21T00:46:27;10.00;99.90
21318;DHT22;10818;50.830;6.524;2024-02-21T00:51:28;9.90;99.90
21318;DHT22;10818;50.830;6.524;2024-02-21T00:56:28;9.90;99.90
21318;DHT22;10818;50.830;6.524;2024-02-21T01:01:30;9.90;99.90
21318;DHT22;10818;50.830;6.524;2024-02-21T01:06:30;9.90;99.90
21318;DHT22;10818;50.830;6.524;2024-02-21T01:11:30;9.90;99.90
21318;DHT22;10818;50.830;6.524;2024-02-21T01:16:31;9.90;99.90
21318;DHT22;10818;50.830;6.524;2024-02-21T01:21:31;9.80;99.90
21318;DHT22;10818;50.830;6.524;2024-02-21T01:26:32;9.90;99.90
21318;DHT22;10818;50.830;6.524;2024-02-21T01:31:32;10.00;99.90
21318;DHT22;10818;50.830;6.524;2024-02-21T01:36:33;10.00;99.90
21318;DHT22;10818;50.830;6.524;2024-02-21T01:41:34;10.10;99.90
21318;DHT22;10818;50.830;6.524;2024-02-21T01:46:34;10.10;99.90
21318;DHT22;10818;50.830;6.524;2024-02-21T01:51:36;10.20;99.90
21318;DHT22;10818;50.830;6.524;2024-02-21T01:56:36;10.20;99.90
21318;DHT22;10818;50.830;6.524;2024-02-21T02:01:37;10.10;99.90
21318;DHT22;10818;50.830;6.524;2024-02-21T02:06:37;10.20;99.90
21318;DHT22;10818;50.830;6.524;2024-02-21T02:11:38;10.20;99.90
21318;DHT22;10818;50.830;6.524;2024-02-21T02:16:39;10.10;99.90
21318;DHT22;10818;50.830;6.524;2024-02-21T02:21:39;10.20;99.90
21318;DHT22;10818;50.830;6.524;2024-02-21T02:26:42;10.20;99.90
21318;DHT22;10818;50.830;6.524;2024-02-21T02:31:43;10.20;99.90
21318;DHT22;10818;50.830;6.524;2024-02-21T02:36:44;10.30;99.90
21318;DHT22;10818;50.830;6.524;2024-02-21T02:41:44;10.30;99.90
21318;DHT22;10818;50.830;6.524;2024-02-21T02:46:45;10.30;99.90
21318;DHT22;10818;50.830;6.524;2024-02-21T02:51:45;10.40;99.90
21318;DHT22;10818;50.830;6.524;2024-02-21T02:56:46;10.40;99.90
21318;DHT22;10818;50.830;6.524;2024-02-21T03:01:46;10.40;99.90
21318;DHT22;10818;50.830;6.524;2024-02-21T03:06:47;10.40;99.90
21318;DHT22;10818;50.830;6.524;2024-02-21T03:11:47;10.30;99.90
21318;DHT22;10818;50.830;6.524;2024-02-21T03:16:48;10.30;99.90
21318;DHT22;10818;50.830;6.524;2024-02-21T03:21:51;10.20;99.90
21318;DHT22;10818;50.830;6.524;2024-02-21T03:26:52;10.20;99.90
21318;DHT22;10818;50.830;6.524;2024-02-21T03:31:52;10.30;99.90
21318;DHT22;10818;50.830;6.524;2024-02-21T03:36:53;10.30;99.90
21318;DHT22;10818;50.830;6.524;2024-02-21T03:41:53;10.40;99.90
21318;DHT22;10818;50.830;6.524;2024-02-21T03:46:54;10.50;99.90
21318;DHT22;10818;50.830;6.524;2024-02-21T03:51:54;10.30;99.90
21318;DHT22;10818;50.830;6.524;2024-02-21T03:56:54;10.40;99.90
21318;DHT22;10818;50.830;6.524;2024-02-21T04:01:55;10.30;99.90
21318;DHT22;10818;50.830;6.524;2024-02-21T04:06:56;10.40;99.90
21318;DHT22;10818;50.830;6.524;2024-02-21T04:11:56;10.30;99.90
21318;DHT22;10818;50.830;6.524;2024-02-21T04:16:57;10.30;99.90
21318;DHT22;10818;50.830;6.524;2024-02-21T04:21:57;10.30;99.90
21318;DHT22;10818;50.830;6.524;2024-02-21T04:26:58;10.30;99.90
21318;DHT22;10818;50.830;6.524;2024-02-21T04:31:58;10.20;99.90
21318;DHT22;10818;50.830;6.524;2024-02-21T04:36:59;10.30;99.90
21318;DHT22;10818;50.830;6.524;2024-02-21T04:41:59;10.30;99.90
21318;DHT22;10818;50.830;6.524;2024-02-21T04:47:00;10.20;99.90
21318;DHT22;10818;50.830;6.524;2024-02-21T04:52:01;10.20;99.90
21318;DHT22;10818;50.830;6.524;2024-02-21T04:57:01;10.10;99.90
21318;DHT22;10818;50.830;6.524;2024-02-21T05:02:02;10.10;99.90
21318;DHT22;10818;50.830;6.524;2024-02-21T05:07:03;10.00;99.90
21318;DHT22;10818;50.830;6.524;2024-02-21T05:12:04;10.20;99.90
21318;DHT22;10818;50.830;6.524;2024-02-21T05:17:05;10.20;99.90
21318;DHT22;10818;50.830;6.524;2024-02-21T05:22:05;10.20;99.90
21318;DHT22;10818;50.830;6.524;2024-02-21T05:27:06;10.10;99.90
21318;DHT22;10818;50.830;6.524;2024-02-21T05:32:06;10.10;99.90
21318;DHT22;10818;50.830;6.524;2024-02-21T05:37:07;10.20;99.90
21318;DHT22;10818;50.830;6.524;2024-02-21T05:42:07;10.10;99.90
21318;DHT22;10818;50.830;6.524;2024-02-21T05:47:07;10.10;99.90
21318;DHT22;10818;50.830;6.524;2024-02-21T05:52:10;10.10;99.90
21318;DHT22;10818;50.830;6.524;2024-02-21T05:57:11;10.10;99.90
21318;DHT22;10818;50.830;6.524;2024-02-21T06:02:11;10.20;99.90
21318;DHT22;10818;50.830;6.524;2024-02-21T06:07:11;10.40;99.90
21318;DHT22;10818;50.830;6.524;2024-02-21T06:12:12;10.30;99.90
21318;DHT22;10818;50.830;6.524;2024-02-21T06:17:12;10.20;99.90
21318;DHT22;10818;50.830;6.524;2024-02-21T06:22:13;10.20;99.90
21318;DHT22;10818;50.830;6.524;2024-02-21T06:27:13;10.40;99.90
21318;DHT22;10818;50.830;6.524;2024-02-21T06:32:16;10.30;99.90
21318;DHT22;10818;50.830;6.524;2024-02-21T06:37:16;10.40;99.90
21318;DHT22;10818;50.830;6.524;2024-02-21T06:42:17;10.20;99.90
21318;DHT22;10818;50.830;6.524;2024-02-21T06:47:17;10.20;99.90
21318;DHT22;10818;50.830;6.524;2024-02-21T06:52:18;10.40;99.90
21318;DHT22;10818;50.830;6.524;2024-02-21T06:57:20;10.30;99.90
21318;DHT22;10818;50.830;6.524;2024-02-21T07:02:21;10.20;99.90
21318;DHT22;10818;50.830;6.524;2024-02-21T07:07:21;10.20;99.90
21318;DHT22;10818;50.830;6.524;2024-02-21T07:12:21;10.20;99.90
21318;DHT22;10818;50.830;6.524;2024-02-21T07:17:22;10.10;99.90
21318;DHT22;10818;50.830;6.524;2024-02-21T07:22:22;10.10;99.90
21318;DHT22;10818;50.830;6.524;2024-02-21T07:27:23;10.10;99.90
21318;DHT22;10818;50.830;6.524;2024-02-21T07:32:23;10.20;99.90
21318;DHT22;10818;50.830;6.524;2024-02-21T07:37:24;10.20;99.90
21318;DHT22;10818;50.830;6.524;2024-02-21T07:42:24;10.10;99.90
21318;DHT22;10818;50.830;6.524;2024-02-21T07:47:25;10.30;99.90
21318;DHT22;10818;50.830;6.524;2024-02-21T07:52:25;10.20;99.90
21318;DHT22;10818;50.830;6.524;2024-02-21T07:57:25;10.40;99.90
21318;DHT22;10818;50.830;6.524;2024-02-21T08:02:26;10.40;99.90
21318;DHT22;10818;50.830;6.524;2024-02-21T08:07:26;10.50;99.90
21318;DHT22;10818;50.830;6.524;2024-02-21T08:12:29;10.60;99.90
21318;DHT22;10818;50.830;6.524;2024-02-21T08:17:29;10.70;99.90
21318;DHT22;10818;50.830;6.524;2024-02-21T08:22:30;10.80;99.90
21318;DHT22;10818;50.830;6.524;2024-02-21T08:27:30;10.90;99.90
21318;DHT22;10818;50.830;6.524;2024-02-21T08:32:31;11.10;99.90
21318;DHT22;10818;50.830;6.524;2024-02-21T08:37:31;11.10;99.90
21318;DHT22;10818;50.830;6.524;2024-02-21T08:42:32;11.20;99.90
21318;DHT22;10818;50.830;6.524;2024-02-21T08:47:32;11.60;99.90
21318;DHT22;10818;50.830;6.524;2024-02-21T08:52:32;11.90;99.90
21318;DHT22;10818;50.830;6.524;2024-02-21T08:57:33;12.10;99.90
21318;DHT22;10818;50.830;6.524;2024-02-21T09:02:39;12.30;99.90
21318;DHT22;10818;50.830;6.524;2024-02-21T09:07:40;12.60;99.90
21318;DHT22;10818;50.830;6.524;2024-02-21T09:12:40;12.50;99.90
21318;DHT22;10818;50.830;6.524;2024-02-21T09:17:41;12.50;99.90
21318;DHT22;10818;50.830;6.524;2024-02-21T09:22:41;12.70;99.90
21318;DHT22;10818;50.830;6.524;2024-02-21T09:27:43;13.00;99.90
21318;DHT22;10818;50.830;6.524;2024-02-21T09:32:44;12.80;99.90
21318;DHT22;10818;50.830;6.524;2024-02-21T09:37:44;12.60;99.90
21318;DHT22;10818;50.830;6.524;2024-02-21T09:42:46;12.70;99.90
21318;DHT22;10818;50.830;6.524;2024-02-21T09:47:58;12.50;99.90
21318;DHT22;10818;50.830;6.524;2024-02-21T09:53:02;12.50;99.90
21318;DHT22;10818;50.830;6.524;2024-02-21T09:58:04;12.60;99.90
21318;DHT22;10818;50.830;6.524;2024-02-21T10:03:05;12.70;99.90
21318;DHT22;10818;50.830;6.524;2024-02-21T10:08:13;12.70;99.90
21318;DHT22;10818;50.830;6.524;2024-02-21T10:13:26;12.80;99.90
21318;DHT22;10818;50.830;6.524;2024-02-21T10:18:28;12.70;99.90
21318;DHT22;10818;50.830;6.524;2024-02-21T10:23:28;12.70;99.90
21318;DHT22;10818;50.830;6.524;2024-02-21T10:28:29;12.90;99.90
21318;DHT22;10818;50.830;6.524;2024-02-21T10:33:29;12.80;99.90
21318;DHT22;10818;50.830;6.524;2024-02-21T10:38:32;12.60;99.90
21318;DHT22;10818;50.830;6.524;2024-02-21T10:43:40;12.70;99.90
21318;DHT22;10818;50.830;6.524;2024-02-21T10:48:44;12.90;99.90
21318;DHT22;10818;50.830;6.524;2024-02-21T10:58:54;13.40;99.90
21318;DHT22;10818;50.830;6.524;2024-02-21T11:03:58;13.30;99.90
21318;DHT22;10818;50.830;6.524;2024-02-21T11:14:05;13.40;99.90
21318;DHT22;10818;50.830;6.524;2024-02-21T11:24:06;13.50;99.90
21318;DHT22;10818;50.830;6.524;2024-02-21T11:29:07;13.40;99.90
21318;DHT22;10818;50.830;6.524;2024-02-21T11:34:10;13.50;99.90
21318;DHT22;10818;50.830;6.524;2024-02-21T11:39:11;13.40;99.90
21318;DHT22;10818;50.830;6.524;2024-02-21T11:44:11;13.60;99.90
21318;DHT22;10818;50.830;6.524;2024-02-21T11:49:11;13.70;99.90
21318;DHT22;10818;50.830;6.524;2024-02-21T11:54:12;13.80;99.90
21318;DHT22;10818;50.830;6.524;2024-02-21T11:59:16;13.50;99.90
21318;DHT22;10818;50.830;6.524;2024-02-21T12:04:17;13.50;99.90
21318;DHT22;10818;50.830;6.524;2024-02-21T12:09:19;13.40;99.90
21318;DHT22;10818;50.830;6.524;2024-02-21T12:14:19;13.40;99.90
21318;DHT22;10818;50.830;6.524;2024-02-21T12:19:20;13.50;99.90
21318;DHT22;10818;50.830;6.524;2024-02-21T12:24:21;13.60;99.90
21318;DHT22;10818;50.830;6.524;2024-02-21T12:29:23;13.60;99.90
21318;DHT22;10818;50.830;6.524;2024-02-21T12:34:27;13.50;99.90
21318;DHT22;10818;50.830;6.524;2024-02-21T12:39:28;13.40;99.90
21318;DHT22;10818;50.830;6.524;2024-02-21T12:44:29;13.70;99.90
21318;DHT22;10818;50.830;6.524;2024-02-21T12:49:29;14.20;99.90
21318;DHT22;10818;50.830;6.524;2024-02-21T12:54:29;13.80;99.90
21318;DHT22;10818;50.830;6.524;2024-02-21T12:59:31;14.30;99.90
21318;DHT22;10818;50.830;6.524;2024-02-21T13:04:31;14.60;99.90
21318;DHT22;10818;50.830;6.524;2024-02-21T13:09:32;14.70;99.90
21318;DHT22;10818;50.830;6.524;2024-02-21T13:14:32;14.90;99.90
21318;DHT22;10818;50.830;6.524;2024-02-21T13:19:33;15.00;99.90
21318;DHT22;10818;50.830;6.524;2024-02-21T13:24:33;14.90;99.90
21318;DHT22;10818;50.830;6.524;2024-02-21T13:29:34;15.10;99.90
21318;DHT22;10818;50.830;6.524;2024-02-21T13:34:34;15.10;99.90
21318;DHT22;10818;50.830;6.524;2024-02-21T13:39:35;15.20;99.90
21318;DHT22;10818;50.830;6.524;2024-02-21T13:44:36;15.30;99.90
21318;DHT22;10818;50.830;6.524;2024-02-21T13:49:37;15.20;99.90
21318;DHT22;10818;50.830;6.524;2024-02-21T13:54:38;15.20;99.90
21318;DHT22;10818;50.830;6.524;2024-02-21T13:59:39;15.30;99.90
21318;DHT22;10818;50.830;6.524;2024-02-21T14:04:40;15.30;99.90
21318;DHT22;10818;50.830;6.524;2024-02-21T14:09:40;14.90;99.90
21318;DHT22;10818;50.830;6.524;2024-02-21T14:14:41;14.50;99.90
21318;DHT22;10818;50.830;6.524;2024-02-21T14:19:42;14.00;99.90
21318;DHT22;10818;50.830;6.524;2024-02-21T14:24:42;13.60;99.90
21318;DHT22;10818;50.830;6.524;2024-02-21T14:29:43;13.20;99.90
21318;DHT22;10818;50.830;6.524;2024-02-21T14:34:43;13.40;99.90
21318;DHT22;10818;50.830;6.524;2024-02-21T14:39:44;13.40;99.90
21318;DHT22;10818;50.830;6.524;2024-02-21T14:44:44;13.30;99.90
21318;DHT22;10818;50.830;6.524;2024-02-21T14:49:45;13.20;99.90
21318;DHT22;10818;50.830;6.524;2024-02-21T14:54:45;12.90;99.90
21318;DHT22;10818;50.830;6.524;2024-02-21T14:59:49;13.00;99.90
21318;DHT22;10818;50.830;6.524;2024-02-21T15:04:50;13.10;99.90
21318;DHT22;10818;50.830;6.524;2024-02-21T15:09:53;13.20;99.90
21318;DHT22;10818;50.830;6.524;2024-02-21T15:14:53;12.90;99.90
21318;DHT22;10818;50.830;6.524;2024-02-21T15:19:54;12.80;99.90
21318;DHT22;10818;50.830;6.524;2024-02-21T15:24:55;12.60;99.90
21318;DHT22;10818;50.830;6.524;2024-02-21T15:29:56;12.50;99.90
21318;DHT22;10818;50.830;6.524;2024-02-21T15:35:00;12.40;99.90
21318;DHT22;10818;50.830;6.524;2024-02-21T15:40:00;12.30;99.90
21318;DHT22;10818;50.830;6.524;2024-02-21T15:45:01;12.20;99.90
21318;DHT22;10818;50.830;6.524;2024-02-21T15:50:05;12.00;99.90
21318;DHT22;10818;50.830;6.524;2024-02-21T15:55:05;12.20;99.90
21318;DHT22;10818;50.830;6.524;2024-02-21T16:00:10;11.90;99.90
21318;DHT22;10818;50.830;6.524;2024-02-21T16:05:12;12.00;99.90
21318;DHT22;10818;50.830;6.524;2024-02-21T16:10:13;12.00;99.90
21318;DHT22;10818;50.830;6.524;2024-02-21T16:15:13;11.90;99.90
21318;DHT22;10818;50.830;6.524;2024-02-21T16:20:14;11.90;99.90
21318;DHT22;10818;50.830;6.524;2024-02-21T16:25:15;11.90;99.90
21318;DHT22;10818;50.830;6.524;2024-02-21T16:30:18;11.90;99.90
21318;DHT22;10818;50.830;6.524;2024-02-21T16:35:19;11.80;99.90
21318;DHT22;10818;50.830;6.524;2024-02-21T16:40:19;11.80;99.90
21318;DHT22;10818;50.830;6.524;2024-02-21T16:45:20;11.70;99.90
21318;DHT22;10818;50.830;6.524;2024-02-21T16:50:21;11.60;99.90
21318;DHT22;10818;50.830;6.524;2024-02-21T16:55:21;11.50;99.90
21318;DHT22;10818;50.830;6.524;2024-02-21T17:00:22;11.50;99.90
21318;DHT22;10818;50.830;6.524;2024-02-21T17:05:23;11.50;99.90
21318;DHT22;10818;50.830;6.524;2024-02-21T17:10:26;11.50;99.90
21318;DHT22;10818;50.830;6.524;2024-02-21T17:15:26;11.50;99.90
21318;DHT22;10818;50.830;6.524;2024-02-21T17:20:27;11.40;99.90
21318;DHT22;10818;50.830;6.524;2024-02-21T17:25:27;11.20;99.90
21318;DHT22;10818;50.830;6.524;2024-02-21T17:30:28;11.10;99.90
21318;DHT22;10818;50.830;6.524;2024-02-21T17:35:29;10.90;99.90
21318;DHT22;10818;50.830;6.524;2024-02-21T17:40:29;10.80;99.90
21318;DHT22;10818;50.830;6.524;2024-02-21T17:45:30;10.60;99.90
21318;DHT22;10818;50.830;6.524;2024-02-21T17:50:30;10.50;99.90
21318;DHT22;10818;50.830;6.524;2024-02-21T17:55:30;10.60;99.90
21318;DHT22;10818;50.830;6.524;2024-02-21T18:00:31;10.30;99.90
21318;DHT22;10818;50.830;6.524;2024-02-21T18:05:32;10.20;99.90
21318;DHT22;10818;50.830;6.524;2024-02-21T18:10:32;10.20;99.90
21318;DHT22;10818;50.830;6.524;2024-02-21T18:15:33;10.00;99.90
21318;DHT22;10818;50.830;6.524;2024-02-21T18:20:33;10.00;99.90
21318;DHT22;10818;50.830;6.524;2024-02-21T18:25:34;9.90;99.90
21318;DHT22;10818;50.830;6.524;2024-02-21T18:30:34;9.90;99.90
21318;DHT22;10818;50.830;6.524;2024-02-21T18:35:35;9.80;99.90
21318;DHT22;10818;50.830;6.524;2024-02-21T18:40:35;9.80;99.90
21318;DHT22;10818;50.830;6.524;2024-02-21T18:45:38;9.60;99.90
21318;DHT22;10818;50.830;6.524;2024-02-21T18:50:38;9.70;99.90
21318;DHT22;10818;50.830;6.524;2024-02-21T18:55:39;9.70;99.90
21318;DHT22;10818;50.830;6.524;2024-02-21T19:00:40;9.80;99.90
21318;DHT22;10818;50.830;6.524;2024-02-21T19:05:40;9.80;99.90
21318;DHT22;10818;50.830;6.524;2024-02-21T19:10:41;9.80;99.90
21318;DHT22;10818;50.830;6.524;2024-02-21T19:15:41;9.80;99.90
21318;DHT22;10818;50.830;6.524;2024-02-21T19:20:42;9.80;99.90
21318;DHT22;10818;50.830;6.524;2024-02-21T19:25:42;9.90;99.90
21318;DHT22;10818;50.830;6.524;2024-02-21T19:30:43;9.80;99.90
21318;DHT22;10818;50.830;6.524;2024-02-21T19:35:44;9.70;99.90
21318;DHT22;10818;50.830;6.524;2024-02-21T19:40:44;9.70;99.90
21318;DHT22;10818;50.830;6.524;2024-02-21T19:45:45;9.80;99.90
21318;DHT22;10818;50.830;6.524;2024-02-21T19:50:46;9.80;99.90
21318;DHT22;10818;50.830;6.524;2024-02-21T19:55:47;9.70;99.90
21318;DHT22;10818;50.830;6.524;2024-02-21T20:00:48;9.70;99.90
21318;DHT22;10818;50.830;6.524;2024-02-21T20:05:48;9.80;99.90
21318;DHT22;10818;50.830;6.524;2024-02-21T20:10:50;9.80;99.90
21318;DHT22;10818;50.830;6.524;2024-02-21T20:15:50;9.90;99.90
21318;DHT22;10818;50.830;6.524;2024-02-21T20:20:51;10.00;99.90
21318;DHT22;10818;50.830;6.524;2024-02-21T20:25:53;9.80;99.90
21318;DHT22;10818;50.830;6.524;2024-02-21T20:30:55;10.00;99.90
21318;DHT22;10818;50.830;6.524;2024-02-21T20:35:55;9.90;99.90
21318;DHT22;10818;50.830;6.524;2024-02-21T20:40:56;9.90;99.90
21318;DHT22;10818;50.830;6.524;2024-02-21T20:45:56;10.00;99.90
21318;DHT22;10818;50.830;6.524;2024-02-21T20:50:57;10.00;99.90
21318;DHT22;10818;50.830;6.524;2024-02-21T20:55:58;9.90;99.90
21318;DHT22;10818;50.830;6.524;2024-02-21T21:00:59;9.80;99.90
21318;DHT22;10818;50.830;6.524;2024-02-21T21:06:00;9.90;99.90
21318;DHT22;10818;50.830;6.524;2024-02-21T21:11:01;9.90;99.90
21318;DHT22;10818;50.830;6.524;2024-02-21T21:16:02;10.00;99.90
21318;DHT22;10818;50.830;6.524;2024-02-21T21:21:02;10.00;99.90
21318;DHT22;10818;50.830;6.524;2024-02-21T21:26:03;10.00;99.90
21318;DHT22;10818;50.830;6.524;2024-02-21T21:31:04;10.00;99.90
21318;DHT22;10818;50.830;6.524;2024-02-21T21:36:05;10.10;99.90
21318;DHT22;10818;50.830;6.524;2024-02-21T21:41:06;10.10;99.90
21318;DHT22;10818;50.830;6.524;2024-02-21T21:46:13;10.20;99.90
21318;DHT22;10818;50.830;6.524;2024-02-21T21:51:14;10.10;99.90
21318;DHT22;10818;50.830;6.524;2024-02-21T21:56:14;10.20;99.90
21318;DHT22;10818;50.830;6.524;2024-02-21T22:01:15;10.30;99.90
21318;DHT22;10818;50.830;6.524;2024-02-21T22:06:16;10.20;99.90
21318;DHT22;10818;50.830;6.524;2024-02-21T22:11:16;10.30;99.90
21318;DHT22;10818;50.830;6.524;2024-02-21T22:16:17;10.30;99.90
21318;DHT22;10818;50.830;6.524;2024-02-21T22:21:18;10.40;99.90
21318;DHT22;10818;50.830;6.524;2024-02-21T22:26:18;10.30;99.90
21318;DHT22;10818;50.830;6.524;2024-02-21T22:31:19;10.40;99.90
21318;DHT22;10818;50.830;6.524;2024-02-21T22:36:19;10.40;99.90
21318;DHT22;10818;50.830;6.524;2024-02-21T22:41:20;10.50;99.90
21318;DHT22;10818;50.830;6.524;2024-02-21T22:46:21;10.50;99.90
21318;DHT22;10818;50.830;6.524;2024-02-21T22:51:22;10.40;99.90
21318;DHT22;10818;50.830;6.524;2024-02-21T22:56:23;10.60;99.90
21318;DHT22;10818;50.830;6.524;2024-02-21T23:01:24;10.60;99.90
21318;DHT22;10818;50.830;6.524;2024-02-21T23:06:25;10.70;99.90
21318;DHT22;10818;50.830;6.524;2024-02-21T23:11:26;10.70;99.90
21318;DHT22;10818;50.830;6.524;2024-02-21T23:16:27;10.70;99.90
21318;DHT22;10818;50.830;6.524;2024-02-21T23:21:27;10.80;99.90
21318;DHT22;10818;50.830;6.524;2024-02-21T23:26:28;11.00;99.90
21318;DHT22;10818;50.830;6.524;2024-02-21T23:31:31;11.00;99.90
21318;DHT22;10818;50.830;6.524;2024-02-21T23:36:31;11.10;99.90
21318;DHT22;10818;50.830;6.524;2024-02-21T23:41:32;11.10;99.90
21318;DHT22;10818;50.830;6.524;2024-02-21T23:46:32;11.10;99.90
21318;DHT22;10818;50.830;6.524;2024-02-21T23:51:33;11.10;99.90
21318;DHT22;10818;50.830;6.524;2024-02-21T23:56:34;11.20;99.90
